Time;durP1;ratioP1;P1;durP2;ratioP2;P2;SDS_P1;SDS_P2;PMS_P1;PMS_P2;Temp;Humidity;BMP_temperature;BMP_pressure;BME280_temperature;BME280_humidity;BME280_pressure;Samples;Min_cycle;Max_cycle;Signal;HPM_P1;HPM_P2
2022/03/16 00:00:11;;;;;;;;;;;;;;;19.92;36.50;100931.31;4425933;32;19992;-71
2022/03/16 00:02:39;;;;;;;;;;;;;;;19.78;36.43;100923.56;4425255;32;20395;-71
2022/03/16 00:05:06;;;;;;;;;;;;;;;19.88;36.42;100933.56;4414436;32;19966;-71
2022/03/16 00:07:32;;;;;;;;;;;;;;;19.82;36.66;100937.63;4424009;32;19972;-71
2022/03/16 00:10:01;;;;;;;;;;;;;;;19.73;36.69;100927.91;4424062;32;19971;-71
2022/03/16 00:12:30;;;;;;;;;;;;;;;19.66;36.90;100927.53;4423499;32;19968;-71
2022/03/16 00:14:56;;;;;;;;;;;;;;;19.82;36.60;100929.06;4426061;32;19949;-71
2022/03/16 00:17:42;;;;;;;;;;;;;;;19.81;36.62;100928.28;4426165;32;20040;-71
2022/03/16 00:20:09;;;;;;;;;;;;;;;19.72;36.79;100923.50;4423146;32;20430;-71
2022/03/16 00:22:41;;;;;;;;;;;;;;;19.70;36.76;100923.19;4425291;32;20039;-71
2022/03/16 00:25:07;;;;;;;;;;;;;;;19.56;37.06;100928.94;4426369;32;20028;-71
2022/03/16 00:27:33;;;;;;;;;;;;;;;19.71;36.69;100924.78;4424715;32;19991;-71
2022/03/16 00:30:03;;;;;;;;;;;;;;;19.72;36.75;100922.69;4422394;32;19989;-71
2022/03/16 00:32:29;;;;;;;;;;;;;;;19.59;37.10;100928.75;4418176;32;20012;-71
2022/03/16 00:34:55;;;;;;;;;;;;;;;19.60;37.06;100923.81;4424519;32;19995;-71
2022/03/16 00:37:23;;;;;;;;;;;;;;;19.53;37.22;100921.37;4422962;32;21039;-71
2022/03/16 00:39:51;;;;;;;;;;;;;;;19.53;37.20;100918.53;4422657;32;19957;-71
2022/03/16 00:42:17;;;;;;;;;;;;;;;19.37;37.33;100917.00;4423284;32;19981;-71
2022/03/16 00:44:43;;;;;;;;;;;;;;;19.27;37.74;100915.50;4423855;32;20311;-71
2022/03/16 00:47:29;;;;;;;;;;;;;;;19.39;37.57;100919.34;4423907;32;20383;-71
2022/03/16 00:49:55;;;;;;;;;;;;;;;19.35;37.74;100913.84;4424285;32;20021;-71
2022/03/16 00:52:20;;;;;;;;;;;;;;;19.31;37.80;100923.88;4425881;32;19989;-71
2022/03/16 00:54:46;;;;;;;;;;;;;;;19.01;38.00;100920.25;4426434;32;20001;-71
2022/03/16 00:57:11;;;;;;;;;;;;;;;19.11;37.94;100926.62;4426467;32;20035;-71
2022/03/16 00:59:39;;;;;;;;;;;;;;;18.91;38.44;100935.09;4412461;32;19993;-71
2022/03/16 01:02:05;;;;;;;;;;;;;;;18.73;38.79;100924.66;4416530;32;19954;-71
2022/03/16 01:04:31;;;;;;;;;;;;;;;18.68;39.00;100921.72;4418118;32;19999;-71
2022/03/16 01:06:56;;;;;;;;;;;;;;;18.67;39.01;100925.81;4424364;32;19946;-71
2022/03/16 01:09:22;;;;;;;;;;;;;;;18.46;39.61;100918.41;4423825;32;19984;-71
2022/03/16 01:11:47;;;;;;;;;;;;;;;18.34;39.81;100917.38;4423218;32;20031;-71
2022/03/16 01:14:17;;;;;;;;;;;;;;;18.32;39.81;100911.41;4416772;32;20393;-71
2022/03/16 01:16:44;;;;;;;;;;;;;;;18.22;40.02;100907.03;4424571;32;19996;-71
2022/03/16 01:19:14;;;;;;;;;;;;;;;18.09;40.51;100917.91;4425021;32;19996;-71
2022/03/16 01:21:40;;;;;;;;;;;;;;;17.93;41.17;100915.50;4422612;32;20315;-71
2022/03/16 01:24:07;;;;;;;;;;;;;;;18.10;40.88;100915.88;4426063;32;20346;-71
2022/03/16 01:26:33;;;;;;;;;;;;;;;18.13;40.43;100912.81;4424283;32;20001;-71
2022/03/16 01:29:01;;;;;;;;;;;;;;;18.08;40.90;100919.19;4424019;32;20472;-71
2022/03/16 01:31:31;;;;;;;;;;;;;;;18.16;40.85;100911.84;4422347;32;19956;-71
2022/03/16 01:33:57;;;;;;;;;;;;;;;18.29;40.64;100900.19;4424792;32;19957;-71
2022/03/16 01:36:25;;;;;;;;;;;;;;;18.49;40.23;100909.69;4423937;32;19965;-71
2022/03/16 01:38:55;;;;;;;;;;;;;;;18.71;39.83;100904.41;4422934;32;19974;-71
2022/03/16 01:41:20;;;;;;;;;;;;;;;18.54;39.77;100909.03;4422881;32;20000;-71
2022/03/16 01:43:46;;;;;;;;;;;;;;;18.77;39.52;100907.34;4424474;32;20321;-71
2022/03/16 01:46:12;;;;;;;;;;;;;;;18.67;39.86;100905.88;4422924;32;20001;-71
2022/03/16 01:48:37;;;;;;;;;;;;;;;18.67;39.79;100906.66;4423971;32;20225;-71
2022/03/16 01:51:04;;;;;;;;;;;;;;;18.66;39.68;100907.16;4424951;32;20443;-71
2022/03/16 01:53:29;;;;;;;;;;;;;;;18.72;39.76;100910.91;4424903;32;20105;-71
2022/03/16 01:55:55;;;;;;;;;;;;;;;18.67;39.82;100912.38;4415495;32;19985;-71
2022/03/16 01:58:21;;;;;;;;;;;;;;;18.72;39.65;100905.97;4426382;32;19993;-71
2022/03/16 02:00:49;;;;;;;;;;;;;;;18.69;39.79;100894.78;4424963;32;19984;-71
2022/03/16 02:03:15;;;;;;;;;;;;;;;18.66;39.62;100893.69;4418242;32;20377;-71
2022/03/16 02:05:40;;;;;;;;;;;;;;;18.77;39.65;100893.09;4424605;32;19957;-71
2022/03/16 02:08:08;;;;;;;;;;;;;;;18.77;39.62;100888.19;4422346;32;20634;-71
2022/03/16 02:10:35;;;;;;;;;;;;;;;18.71;39.69;100887.28;4422782;32;20005;-71
2022/03/16 02:13:02;;;;;;;;;;;;;;;18.77;39.90;100882.47;4422177;32;19965;-71
2022/03/16 02:15:29;;;;;;;;;;;;;;;18.76;40.00;100877.28;4425255;32;20023;-71
2022/03/16 02:17:56;;;;;;;;;;;;;;;18.84;39.75;100881.31;4424363;32;19990;-71
2022/03/16 02:20:30;;;;;;;;;;;;;;;18.81;39.76;100885.16;4422685;32;20399;-71
2022/03/16 02:22:59;;;;;;;;;;;;;;;18.84;40.02;100884.16;4422703;32;20045;-71
2022/03/16 02:25:27;;;;;;;;;;;;;;;18.77;39.94;100890.25;4423675;32;19958;-71
2022/03/16 02:27:53;;;;;;;;;;;;;;;18.74;39.89;100883.47;4423140;32;20024;-71
2022/03/16 02:30:20;;;;;;;;;;;;;;;18.80;39.70;100886.41;4422250;32;20024;-71
2022/03/16 02:32:47;;;;;;;;;;;;;;;18.75;39.79;100887.09;4423785;32;20019;-71
2022/03/16 02:35:14;;;;;;;;;;;;;;;18.64;40.02;100879.16;4423612;32;20001;-71
2022/03/16 02:37:40;;;;;;;;;;;;;;;18.72;40.01;100879.53;4424764;32;20292;-71
2022/03/16 02:40:09;;;;;;;;;;;;;;;18.65;40.41;100886.41;4423455;32;19961;-71
2022/03/16 02:42:39;;;;;;;;;;;;;;;18.50;40.52;100888.47;4421900;32;20684;-71
2022/03/16 02:45:06;;;;;;;;;;;;;;;18.57;40.32;100876.69;4421972;32;19986;-71
2022/03/16 02:47:33;;;;;;;;;;;;;;;18.51;40.42;100880.69;4424380;32;20220;-71
2022/03/16 02:50:04;;;;;;;;;;;;;;;18.58;40.53;100886.81;4423020;32;19953;-71
2022/03/16 02:52:31;;;;;;;;;;;;;;;18.49;41.27;100886.91;4424702;32;19989;-71
2022/03/16 02:55:18;;;;;;;;;;;;;;;18.32;41.57;100890.66;4422252;32;20446;-71
2022/03/16 02:57:44;;;;;;;;;;;;;;;18.46;41.38;100889.91;4422646;32;19993;-71
2022/03/16 03:00:12;;;;;;;;;;;;;;;18.39;41.92;100896.00;4423201;32;19953;-71
2022/03/16 03:02:38;;;;;;;;;;;;;;;18.34;41.58;100888.91;4424011;32;19957;-72
2022/03/16 03:05:21;;;;;;;;;;;;;;;18.49;41.59;100883.25;4422782;32;19980;-72
2022/03/16 03:08:07;;;;;;;;;;;;;;;18.36;42.08;100889.22;4419577;32;20032;-72
2022/03/16 03:10:32;;;;;;;;;;;;;;;18.47;41.95;100878.03;4423614;32;20351;-72
2022/03/16 03:13:06;;;;;;;;;;;;;;;18.59;41.87;100874.13;4420773;32;20007;-72
2022/03/16 03:15:36;;;;;;;;;;;;;;;18.24;42.51;100869.53;4423508;32;20026;-72
2022/03/16 03:18:18;;;;;;;;;;;;;;;18.17;42.79;100878.44;4424357;32;19964;-72
2022/03/16 03:21:05;;;;;;;;;;;;;;;18.14;42.94;100865.19;4425814;32;20421;-72
2022/03/16 03:23:50;;;;;;;;;;;;;;;18.27;42.60;100879.94;4421814;32;20016;-72
2022/03/16 03:26:17;;;;;;;;;;;;;;;18.03;43.29;100873.50;4418094;32;19961;-72
2022/03/16 03:28:42;;;;;;;;;;;;;;;17.97;43.21;100884.00;4426971;32;20388;-72
2022/03/16 03:31:07;;;;;;;;;;;;;;;17.97;43.42;100881.94;4426251;32;20193;-72
2022/03/16 03:33:33;;;;;;;;;;;;;;;17.78;43.89;100869.91;4425011;32;19950;-72
2022/03/16 03:35:59;;;;;;;;;;;;;;;17.70;44.14;100862.97;4426422;32;19993;-71
2022/03/16 03:38:25;;;;;;;;;;;;;;;17.19;45.56;100864.37;4425089;32;20013;-71
2022/03/16 03:40:51;;;;;;;;;;;;;;;17.44;44.73;100861.09;4425764;32;19956;-72
2022/03/16 03:43:17;;;;;;;;;;;;;;;17.54;44.33;100871.16;4424841;32;20322;-72
2022/03/16 03:46:00;;;;;;;;;;;;;;;17.51;44.64;100878.59;4427605;32;20362;-72
2022/03/16 03:48:25;;;;;;;;;;;;;;;17.61;44.06;100873.63;4423262;32;19989;-72
2022/03/16 03:50:51;;;;;;;;;;;;;;;17.76;44.14;100871.63;4424019;32;19961;-72
2022/03/16 03:53:16;;;;;;;;;;;;;;;17.80;44.02;100870.19;4424992;32;19949;-72
2022/03/16 03:55:42;;;;;;;;;;;;;;;17.99;43.55;100865.16;4425131;32;20402;-71
2022/03/16 03:58:17;;;;;;;;;;;;;;;17.94;43.41;100865.81;4424073;32;19953;-72
2022/03/16 04:01:05;;;;;;;;;;;;;;;18.17;43.38;100870.69;4422712;32;20370;-72
2022/03/16 04:03:32;;;;;;;;;;;;;;;18.19;43.18;100873.06;4426278;32;20005;-72
2022/03/16 04:06:00;;;;;;;;;;;;;;;18.41;42.41;100860.03;4424404;32;19953;-72
2022/03/16 04:08:25;;;;;;;;;;;;;;;18.27;42.99;100874.25;4425781;32;20005;-72
2022/03/16 04:10:53;;;;;;;;;;;;;;;18.24;42.99;100863.81;4424429;32;20437;-72
2022/03/16 04:13:21;;;;;;;;;;;;;;;18.42;42.52;100863.69;4423972;32;19989;-72
2022/03/16 04:16:09;;;;;;;;;;;;;;;18.38;42.98;100865.94;4424363;32;20052;-72
2022/03/16 04:18:35;;;;;;;;;;;;;;;18.49;42.73;100869.00;4425189;32;19981;-72
2022/03/16 04:21:01;;;;;;;;;;;;;;;18.57;42.58;100868.13;4424280;32;19998;-72
2022/03/16 04:23:28;;;;;;;;;;;;;;;18.61;42.55;100865.06;4424587;32;20405;-72
2022/03/16 04:25:53;;;;;;;;;;;;;;;18.80;42.02;100869.28;4424913;32;20027;-72
2022/03/16 04:28:22;;;;;;;;;;;;;;;18.63;42.15;100868.22;4416908;32;19996;-72
2022/03/16 04:30:49;;;;;;;;;;;;;;;18.64;42.44;100861.25;4422011;32;20027;-72
2022/03/16 04:33:38;;;;;;;;;;;;;;;18.55;42.86;100864.19;4424965;32;19993;-72
2022/03/16 04:36:05;;;;;;;;;;;;;;;18.55;42.82;100869.88;4425591;32;20472;-72
2022/03/16 04:38:32;;;;;;;;;;;;;;;18.57;42.87;100867.34;4424661;32;19989;-72
2022/03/16 04:41:00;;;;;;;;;;;;;;;18.63;42.60;100873.94;4425144;32;19991;-72
2022/03/16 04:43:27;;;;;;;;;;;;;;;18.44;42.73;100864.75;4424973;32;19954;-72
2022/03/16 04:45:52;;;;;;;;;;;;;;;18.67;42.71;100869.59;4424645;32;20019;-72
2022/03/16 04:48:23;;;;;;;;;;;;;;;18.79;42.52;100876.28;4425035;32;19982;-72
2022/03/16 04:50:49;;;;;;;;;;;;;;;18.88;42.28;100879.03;4418345;32;20026;-72
2022/03/16 04:53:18;;;;;;;;;;;;;;;18.84;42.43;100882.06;4423774;32;19967;-72
2022/03/16 04:55:48;;;;;;;;;;;;;;;18.95;42.26;100887.19;4423286;32;19953;-72
2022/03/16 04:58:14;;;;;;;;;;;;;;;18.99;42.12;100891.41;4426313;32;19953;-72
2022/03/16 05:00:56;;;;;;;;;;;;;;;18.95;42.04;100895.75;4422973;32;20060;-72
2022/03/16 05:03:22;;;;;;;;;;;;;;;19.02;41.77;100901.84;4425079;32;19961;-72
2022/03/16 05:05:48;;;;;;;;;;;;;;;18.87;42.01;100894.59;4424961;32;20003;-72
2022/03/16 05:08:16;;;;;;;;;;;;;;;18.99;42.15;100910.63;4423568;32;20274;-72
2022/03/16 05:10:42;;;;;;;;;;;;;;;18.93;41.93;100904.03;4423216;32;19973;-72
2022/03/16 05:13:07;;;;;;;;;;;;;;;19.06;42.05;100910.22;4422202;32;20388;-72
2022/03/16 05:15:35;;;;;;;;;;;;;;;19.11;41.85;100907.44;4426177;32;20327;-72
2022/03/16 05:18:00;;;;;;;;;;;;;;;19.20;41.63;100901.63;4423201;32;20275;-72
2022/03/16 05:20:30;;;;;;;;;;;;;;;19.00;41.28;100897.91;4423481;32;20060;-72
2022/03/16 05:22:58;;;;;;;;;;;;;;;19.14;41.62;100885.69;4425706;32;20488;-72
2022/03/16 05:25:25;;;;;;;;;;;;;;;19.01;41.81;100893.78;4425805;32;19973;-72
2022/03/16 05:27:53;;;;;;;;;;;;;;;19.13;41.74;100902.03;4415797;32;19957;-72
2022/03/16 05:30:22;;;;;;;;;;;;;;;19.07;42.01;100903.22;4422951;32;20377;-72
2022/03/16 05:33:10;;;;;;;;;;;;;;;19.18;41.81;100906.25;4425306;32;20011;-72
2022/03/16 05:35:58;;;;;;;;;;;;;;;19.20;41.84;100903.69;4424882;32;19957;-72
2022/03/16 05:38:45;;;;;;;;;;;;;;;19.19;41.48;100907.81;4421278;32;19949;-72
2022/03/16 05:41:33;;;;;;;;;;;;;;;19.02;42.00;100907.53;4423670;32;19946;-72
2022/03/16 05:44:00;;;;;;;;;;;;;;;18.75;42.09;100915.63;4424388;32;19968;-72
2022/03/16 05:46:26;;;;;;;;;;;;;;;18.76;42.45;100909.44;4416143;32;19990;-72
2022/03/16 05:49:03;;;;;;;;;;;;;;;19.00;42.16;100915.03;4423232;32;20278;-72
2022/03/16 05:51:30;;;;;;;;;;;;;;;19.08;41.90;100911.28;4425097;32;20042;-72
2022/03/16 05:54:02;;;;;;;;;;;;;;;19.05;42.01;100912.25;4423820;32;19961;-72
2022/03/16 05:56:27;;;;;;;;;;;;;;;19.14;41.87;100908.50;4424171;32;20018;-72
2022/03/16 05:58:53;;;;;;;;;;;;;;;19.14;41.63;100914.22;4423658;32;19953;-72
2022/03/16 06:01:19;;;;;;;;;;;;;;;19.13;41.71;100929.78;4422581;32;20023;-72
2022/03/16 06:03:59;;;;;;;;;;;;;;;19.09;41.78;100924.25;4423856;32;20588;-72
2022/03/16 06:06:26;;;;;;;;;;;;;;;19.25;41.42;100935.19;4425180;32;19954;-72
2022/03/16 06:08:52;;;;;;;;;;;;;;;19.31;41.33;100941.00;4422697;32;19980;-72
2022/03/16 06:11:31;;;;;;;;;;;;;;;19.31;41.13;100935.28;4424565;32;20011;-72
2022/03/16 06:13:57;;;;;;;;;;;;;;;19.36;nan;100935.37;4422199;32;20308;-72
2022/03/16 06:16:23;;;;;;;;;;;;;;;19.29;41.71;100935.00;4422115;32;19992;-72
2022/03/16 06:18:48;;;;;;;;;;;;;;;19.34;41.54;100940.81;4423254;32;19949;-72
2022/03/16 06:21:15;;;;;;;;;;;;;;;19.33;41.27;100933.50;4425514;32;19975;-72
2022/03/16 06:23:41;;;;;;;;;;;;;;;19.57;41.29;100933.38;4425008;32;19994;-72
2022/03/16 06:26:27;;;;;;;;;;;;;;;19.41;41.44;100936.75;4422700;32;20009;-72
2022/03/16 06:29:01;;;;;;;;;;;;;;;19.43;41.86;100931.34;4425000;32;19971;-72
2022/03/16 06:31:26;;;;;;;;;;;;;;;19.47;41.90;100929.84;4421450;32;20009;-72
2022/03/16 06:34:12;;;;;;;;;;;;;;;19.33;41.67;100927.81;4422950;32;19957;-72
2022/03/16 06:37:03;;;;;;;;;;;;;;;19.54;41.75;100922.94;4424107;32;19985;-72
2022/03/16 06:39:31;;;;;;;;;;;;;;;19.53;41.92;100925.03;4424571;32;20271;-72
2022/03/16 06:42:18;;;;;;;;;;;;;;;19.64;41.69;100930.12;4422728;32;19972;-72
2022/03/16 06:44:48;;;;;;;;;;;;;;;19.70;41.50;100926.03;4422779;32;19966;-72
2022/03/16 06:47:15;;;;;;;;;;;;;;;19.83;41.16;100924.91;4423672;32;20021;-72
2022/03/16 06:49:56;;;;;;;;;;;;;;;19.83;41.15;100923.62;4423021;32;19964;-72
2022/03/16 06:52:43;;;;;;;;;;;;;;;19.72;41.63;100929.19;4420803;32;19963;-72
2022/03/16 06:55:12;;;;;;;;;;;;;;;19.88;41.37;100927.09;4428398;32;20001;-72
2022/03/16 06:57:39;;;;;;;;;;;;;;;19.92;41.14;100937.00;4426810;32;20573;-72
2022/03/16 07:00:05;;;;;;;;;;;;;;;20.11;41.08;100941.16;4426729;32;19968;-72
2022/03/16 07:02:31;;;;;;;;;;;;;;;20.11;41.09;100941.16;4427053;32;20009;-72
2022/03/16 07:05:04;;;;;;;;;;;;;;;20.31;40.65;100943.28;4427789;32;19953;-72
2022/03/16 07:07:30;;;;;;;;;;;;;;;20.33;40.50;100937.81;4418388;32;20014;-72
2022/03/16 07:09:55;;;;;;;;;;;;;;;20.46;39.96;100946.84;4427369;32;19957;-72
2022/03/16 07:12:40;;;;;;;;;;;;;;;20.42;40.60;100946.25;4423826;32;19969;-72
2022/03/16 07:15:09;;;;;;;;;;;;;;;20.35;40.28;100938.91;4425979;32;20350;-72
2022/03/16 07:17:36;;;;;;;;;;;;;;;20.41;40.14;100942.63;4427366;32;20352;-72
2022/03/16 07:20:04;;;;;;;;;;;;;;;20.29;41.06;100942.97;4427165;32;19977;-71
2022/03/16 07:23:06;;;;;;;;;;;;;;;20.19;41.44;100950.13;4426607;32;19976;-71
2022/03/16 07:25:32;;;;;;;;;;;;;;;20.02;41.63;100943.34;4425194;32;19985;-72
2022/03/16 07:28:06;;;;;;;;;;;;;;;20.08;41.85;100947.88;4426006;32;20231;-72
2022/03/16 07:30:51;;;;;;;;;;;;;;;19.95;42.19;100947.44;4423850;32;20471;-72
2022/03/16 07:33:19;;;;;;;;;;;;;;;20.05;41.81;100943.16;4422084;32;19997;-72
2022/03/16 07:36:05;;;;;;;;;;;;;;;20.03;42.68;100944.94;4418958;32;19962;-72
2022/03/16 07:38:31;;;;;;;;;;;;;;;19.83;42.62;100937.12;4423869;32;20570;-72
2022/03/16 07:40:59;;;;;;;;;;;;;;;19.61;43.04;100949.00;4422825;32;20027;-72
2022/03/16 07:43:25;;;;;;;;;;;;;;;19.67;42.95;100951.97;4420082;32;20001;-72
2022/03/16 07:45:50;;;;;;;;;;;;;;;19.42;43.26;100956.25;4407705;32;19980;-73
2022/03/16 07:48:17;;;;;;;;;;;;;;;19.67;43.42;100957.69;4418549;32;20069;-73
2022/03/16 07:50:42;;;;;;;;;;;;;;;19.61;43.18;100959.66;4414614;32;19972;-73
2022/03/16 07:53:09;;;;;;;;;;;;;;;19.53;43.20;100958.47;4415066;32;20069;-73
2022/03/16 07:55:34;;;;;;;;;;;;;;;19.55;43.47;100955.94;4418016;32;20090;-73
2022/03/16 07:58:04;;;;;;;;;;;;;;;19.45;43.93;100972.37;4422519;32;19958;-72
2022/03/16 08:00:31;;;;;;;;;;;;;;;19.61;44.28;100968.22;4415154;32;20017;-72
2022/03/16 08:03:01;;;;;;;;;;;;;;;19.35;43.84;100965.22;4414962;32;19988;-72
2022/03/16 08:05:47;;;;;;;;;;;;;;;19.53;44.48;100975.63;4416075;32;19981;-73
2022/03/16 08:08:13;;;;;;;;;;;;;;;19.44;44.71;100962.25;4405381;32;20023;-72
2022/03/16 08:10:40;;;;;;;;;;;;;;;19.56;45.18;100958.28;4413715;32;20021;-74
2022/03/16 08:13:06;;;;;;;;;;;;;;;19.57;44.56;100957.00;4415990;32;20516;-73
2022/03/16 08:15:34;;;;;;;;;;;;;;;19.24;44.42;100953.56;4416877;32;20299;-73
2022/03/16 08:18:01;;;;;;;;;;;;;;;19.59;44.95;100951.59;4416350;32;20042;-72
2022/03/16 08:20:27;;;;;;;;;;;;;;;19.54;45.52;100955.13;4413381;32;19965;-72
2022/03/16 08:22:56;;;;;;;;;;;;;;;19.26;46.24;100967.34;4414054;32;19959;-73
2022/03/16 08:25:23;;;;;;;;;;;;;;;19.34;45.83;100960.00;4415377;32;19997;-72
2022/03/16 08:27:49;;;;;;;;;;;;;;;19.40;46.04;100978.00;4418919;32;20016;-73
2022/03/16 08:30:16;;;;;;;;;;;;;;;19.58;45.91;100974.94;4416094;32;19986;-73
2022/03/16 08:32:47;;;;;;;;;;;;;;;19.73;45.51;100973.59;4406469;32;20524;-73
2022/03/16 08:35:12;;;;;;;;;;;;;;;19.69;45.42;100964.47;4417894;32;20054;-73
2022/03/16 08:37:39;;;;;;;;;;;;;;;19.81;45.95;100971.12;4415859;32;19996;-74
2022/03/16 08:40:07;;;;;;;;;;;;;;;19.88;45.52;100952.78;4417873;32;19973;-74
2022/03/16 08:42:34;;;;;;;;;;;;;;;19.96;45.96;100956.78;4416979;32;20016;-74
2022/03/16 08:45:01;;;;;;;;;;;;;;;20.07;45.80;100962.66;4416677;32;20003;-74
2022/03/16 08:47:38;;;;;;;;;;;;;;;20.21;45.39;100958.97;4416776;32;19992;-74
2022/03/16 08:50:05;;;;;;;;;;;;;;;20.18;44.85;100959.97;4417574;32;19969;-73
2022/03/16 08:52:31;;;;;;;;;;;;;;;20.22;45.32;100963.41;4418073;32;20008;-73
2022/03/16 08:54:57;;;;;;;;;;;;;;;20.28;45.38;100965.03;4415361;32;20030;-73
2022/03/16 08:57:28;;;;;;;;;;;;;;;20.06;44.35;100961.09;4417622;32;20072;-74
2022/03/16 08:59:55;;;;;;;;;;;;;;;20.28;44.83;100961.41;4416411;32;20418;-75
2022/03/16 09:02:29;;;;;;;;;;;;;;;20.37;44.93;100962.03;4419141;32;20256;-74
2022/03/16 09:05:17;;;;;;;;;;;;;;;20.48;44.92;100967.91;4421167;32;19989;-73
2022/03/16 09:07:47;;;;;;;;;;;;;;;20.53;44.64;100972.91;4418106;32;20068;-74
2022/03/16 09:10:14;;;;;;;;;;;;;;;20.73;44.45;100975.72;4419742;32;20019;-73
2022/03/16 09:12:40;;;;;;;;;;;;;;;20.66;44.50;100978.25;4417882;32;20020;-73
2022/03/16 09:15:08;;;;;;;;;;;;;;;20.43;43.97;100991.47;4416845;32;19993;-73
2022/03/16 09:17:38;;;;;;;;;;;;;;;20.45;43.77;100991.78;4415651;32;20778;-73
2022/03/16 09:20:05;;;;;;;;;;;;;;;20.24;43.85;100998.78;4418042;32;20076;-73
2022/03/16 09:22:39;;;;;;;;;;;;;;;20.04;44.26;100995.88;4414016;32;20271;-73
2022/03/16 09:25:25;;;;;;;;;;;;;;;19.88;44.39;100998.50;4415983;32;19949;-72
2022/03/16 09:27:51;;;;;;;;;;;;;;;19.72;44.53;100994.09;4417277;32;20001;-72
2022/03/16 09:30:19;;;;;;;;;;;;;;;19.69;44.43;100993.00;4419048;32;19999;-72
2022/03/16 09:33:02;;;;;;;;;;;;;;;19.73;44.76;100990.72;4416208;32;20736;-72
2022/03/16 09:35:30;;;;;;;;;;;;;;;19.86;44.80;100981.84;4412325;32;20017;-72
2022/03/16 09:37:58;;;;;;;;;;;;;;;19.99;44.42;100990.06;4418714;32;20445;-72
2022/03/16 09:40:24;;;;;;;;;;;;;;;20.20;44.20;100980.25;4417600;32;19975;-72
2022/03/16 09:42:51;;;;;;;;;;;;;;;20.48;43.73;100989.97;4410998;32;20397;-72
2022/03/16 09:45:21;;;;;;;;;;;;;;;20.59;43.44;100993.75;4417110;32;19989;-72
2022/03/16 09:47:49;;;;;;;;;;;;;;;21.05;42.43;100988.84;4416743;32;19991;-72
2022/03/16 09:50:33;;;;;;;;;;;;;;;21.24;42.12;101004.41;4415717;32;19958;-72
2022/03/16 09:53:05;;;;;;;;;;;;;;;21.56;42.28;101011.72;4413591;32;19962;-72
2022/03/16 09:55:33;;;;;;;;;;;;;;;21.84;40.78;101011.94;4415711;32;20003;-72
2022/03/16 09:58:00;;;;;;;;;;;;;;;22.12;40.68;101012.16;4415836;32;19992;-72
2022/03/16 10:00:28;;;;;;;;;;;;;;;22.32;40.82;101018.50;4413158;32;19997;-72
2022/03/16 10:02:54;;;;;;;;;;;;;;;22.36;39.74;101021.16;4414637;32;19968;-70
2022/03/16 10:05:22;;;;;;;;;;;;;;;22.28;39.83;101011.44;4416593;32;20016;-73
2022/03/16 10:07:53;;;;;;;;;;;;;;;22.54;40.19;101006.37;4410449;32;19957;-72
2022/03/16 10:13:21;;;;;;;;;;;;;;;22.54;39.50;101001.44;4413380;32;20047;-72
2022/03/16 10:16:08;;;;;;;;;;;;;;;22.54;39.20;101004.31;4411938;32;20012;-72
2022/03/16 10:18:35;;;;;;;;;;;;;;;22.12;39.69;101009.28;4416289;32;19965;-73
2022/03/16 10:21:04;;;;;;;;;;;;;;;22.41;39.88;101015.44;4413811;32;20000;-73
2022/03/16 10:23:30;;;;;;;;;;;;;;;22.30;39.61;101001.03;4416414;32;20398;-73
2022/03/16 10:25:59;;;;;;;;;;;;;;;22.31;39.72;101002.63;4406449;32;21182;-73
2022/03/16 10:28:25;;;;;;;;;;;;;;;22.69;39.37;100998.34;4416597;32;19958;-73
2022/03/16 10:33:32;;;;;;;;;;;;;;;23.66;38.03;100986.78;3945425;32;15776630;-73
2022/03/16 10:38:36;;;;;;;;;;;;;;;23.73;38.45;100971.09;3947426;32;15722503;-73
2022/03/16 10:41:11;;;;;;;;;;;;;;;23.73;38.45;100971.09;4421779;32;20347;-73
2022/03/16 10:46:46;;;;;;;;;;;;;;;23.69;38.16;100971.38;4419415;32;19992;-73
2022/03/16 10:49:15;;;;;;;;;;;;;;;24.26;37.80;100967.84;4418314;32;19969;-73
2022/03/16 10:51:41;;;;;;;;;;;;;;;24.27;36.93;100970.19;4403415;32;20482;-73
2022/03/16 10:54:07;;;;;;;;;;;;;;;24.49;36.72;100967.25;4421695;32;20481;-73
2022/03/16 10:56:39;;;;;;;;;;;;;;;24.69;36.10;100948.84;4422237;32;20211;-73
2022/03/16 10:59:08;;;;;;;;;;;;;;;24.70;36.00;100947.56;4415833;32;19973;-73
2022/03/16 11:01:38;;;;;;;;;;;;;;;24.65;36.29;100945.47;4417832;32;20000;-71
2022/03/16 11:04:04;;;;;;;;;;;;;;;24.86;36.22;100950.34;4421074;32;19972;-72
2022/03/16 11:06:48;;;;;;;;;;;;;;;25.04;35.37;100955.44;4421150;32;19993;-72
2022/03/16 11:09:17;;;;;;;;;;;;;;;23.94;35.21;100949.37;4419555;32;19992;-71
2022/03/16 11:14:29;;;;;;;;;;;;;;;25.11;35.04;100945.44;4419588;32;20013;-72
2022/03/16 11:16:58;;;;;;;;;;;;;;;25.38;34.81;100961.78;4420044;32;20028;-71
2022/03/16 11:19:24;;;;;;;;;;;;;;;24.93;33.99;100955.53;4419824;32;20339;-71
2022/03/16 11:21:58;;;;;;;;;;;;;;;24.79;34.42;100961.66;4420866;32;20009;-73
2022/03/16 11:24:25;;;;;;;;;;;;;;;24.60;34.32;100961.44;4419753;32;19989;-72
2022/03/16 11:32:12;;;;;;;;;;;;;;;24.69;35.08;100960.38;3922447;32;15724432;-72
2022/03/16 11:34:37;;;;;;;;;;;;;;;24.69;35.08;100960.38;4397666;32;19999;-72
2022/03/16 11:37:05;;;;;;;;;;;;;;;24.23;34.98;100955.31;4396319;32;20705;-72
2022/03/16 11:39:47;;;;;;;;;;;;;;;23.90;35.62;100952.50;4385352;32;20062;-71
2022/03/16 11:42:32;;;;;;;;;;;;;;;23.13;36.80;100955.41;4395289;32;20023;-73
2022/03/16 11:45:19;;;;;;;;;;;;;;;23.20;37.16;100949.16;4396169;32;20395;-73
2022/03/16 11:48:24;;;;;;;;;;;;;;;22.78;38.16;100947.28;4393471;32;20450;-71
2022/03/16 11:51:11;;;;;;;;;;;;;;;22.08;39.46;100939.91;4396453;32;20014;-71
2022/03/16 11:53:58;;;;;;;;;;;;;;;22.31;39.06;100933.81;4396304;32;20087;-72
2022/03/16 11:56:29;;;;;;;;;;;;;;;22.67;38.88;100935.00;4395361;32;20044;-72
2022/03/16 11:59:02;;;;;;;;;;;;;;;22.52;38.83;100937.28;4396056;32;21475;-72
2022/03/16 12:01:37;;;;;;;;;;;;;;;22.65;38.45;100940.44;4395758;32;19990;-72
2022/03/16 12:04:22;;;;;;;;;;;;;;;22.78;37.01;100940.75;4394388;32;20041;-71
2022/03/16 12:09:34;;;;;;;;;;;;;;;22.97;37.93;100924.59;3944214;32;15722575;-72
2022/03/16 12:12:54;;;;;;;;;;;;;;;22.93;37.83;100926.94;4415065;32;20051;-72
2022/03/16 12:15:14;;;;;;;;;;;;;;;22.87;37.59;100917.53;4416755;32;20012;-72
2022/03/16 12:17:41;;;;;;;;;;;;;;;23.03;37.06;100911.03;4406207;32;20051;-71
2022/03/16 12:22:47;;;;;;;;;;;;;;;23.26;37.46;100884.69;3944479;32;15723249;-72
2022/03/16 12:25:33;;;;;;;;;;;;;;;23.42;37.07;100877.37;4424745;32;20023;-72
2022/03/16 12:33:37;;;;;;;;;;;;;;;24.66;34.68;100877.97;3945100;32;15723487;-71
2022/03/16 12:38:43;;;;;;;;;;;;;;;24.53;35.31;100869.12;3936179;32;15724103;-72
2022/03/16 12:43:57;;;;;;;;;;;;;;;24.28;34.51;100855.94;4404179;32;19993;-71
2022/03/16 12:46:32;;;;;;;;;;;;;;;24.48;34.89;100858.47;4406088;32;20064;-73
2022/03/16 12:49:01;;;;;;;;;;;;;;;24.46;33.78;100858.19;4407000;32;20019;-71
2022/03/16 12:54:10;;;;;;;;;;;;;;;23.99;34.05;100851.63;3954678;32;15722522;-71
2022/03/16 12:56:37;;;;;;;;;;;;;;;23.99;34.05;100851.63;4428193;32;20031;-72
2022/03/16 12:59:04;;;;;;;;;;;;;;;23.45;35.06;100850.47;4429645;32;20092;-72
2022/03/16 13:01:31;;;;;;;;;;;;;;;23.15;35.93;100844.50;4426314;32;19980;-71
2022/03/16 13:04:00;;;;;;;;;;;;;;;23.57;36.23;100845.47;4429758;32;20012;-71
2022/03/16 13:06:43;;;;;;;;;;;;;;;23.74;35.61;100847.00;4427352;32;20009;-72
2022/03/16 13:09:09;;;;;;;;;;;;;;;23.56;36.03;100841.81;4433457;32;20463;-72
2022/03/16 13:11:40;;;;;;;;;;;;;;;23.20;37.03;100831.44;4427958;32;19976;-71
2022/03/16 13:14:13;;;;;;;;;;;;;;;23.12;36.74;100827.50;4430240;32;19960;-71
2022/03/16 13:19:25;;;;;;;;;;;;;;;22.86;36.81;100830.66;3946063;32;15724422;-72
2022/03/16 13:22:26;;;;;;;;;;;;;;;22.86;36.81;100830.66;4414207;32;19997;-72
2022/03/16 13:25:10;;;;;;;;;;;;;;;22.98;36.85;100832.22;4415475;32;19992;-72
2022/03/16 13:27:39;;;;;;;;;;;;;;;23.09;37.05;100832.22;4416357;32;20044;-72
2022/03/16 13:30:12;;;;;;;;;;;;;;;23.32;36.90;100836.66;4408667;32;20256;-72
2022/03/16 13:32:40;;;;;;;;;;;;;;;22.97;36.90;100832.75;4405953;32;20009;-72